sensor_id;sensor_type;location;lat;lon;timestamp;P1;durP1;ratioP1;P2;durP2;ratioP2
79052;SDS011;68451;49.510;6.026;2023-04-25T00:02:01;6.43;;;4.70;;
79052;SDS011;68451;49.510;6.026;2023-04-25T00:04:27;8.53;;;5.37;;
79052;SDS011;68451;49.510;6.026;2023-04-25T00:06:53;8.63;;;5.10;;
79052;SDS011;68451;49.510;6.026;2023-04-25T00:09:19;9.13;;;6.17;;
79052;SDS011;68451;49.510;6.026;2023-04-25T00:11:45;10.70;;;6.50;;
79052;SDS011;68451;49.510;6.026;2023-04-25T00:14:10;8.17;;;5.80;;
79052;SDS011;68451;49.510;6.026;2023-04-25T00:16:36;9.23;;;5.80;;
79052;SDS011;68451;49.510;6.026;2023-04-25T00:19:02;7.10;;;4.83;;
79052;SDS011;68451;49.510;6.026;2023-04-25T00:21:28;7.57;;;5.53;;
79052;SDS011;68451;49.510;6.026;2023-04-25T00:23:54;8.17;;;6.23;;
79052;SDS011;68451;49.510;6.026;2023-04-25T00:26:20;8.00;;;5.13;;
79052;SDS011;68451;49.510;6.026;2023-04-25T00:28:46;8.80;;;6.37;;
79052;SDS011;68451;49.510;6.026;2023-04-25T00:31:12;7.73;;;5.57;;
79052;SDS011;68451;49.510;6.026;2023-04-25T00:33:38;7.20;;;4.83;;
79052;SDS011;68451;49.510;6.026;2023-04-25T00:36:05;7.17;;;6.33;;
79052;SDS011;68451;49.510;6.026;2023-04-25T00:38:31;7.17;;;5.60;;
79052;SDS011;68451;49.510;6.026;2023-04-25T00:40:56;8.33;;;5.53;;
79052;SDS011;68451;49.510;6.026;2023-04-25T00:43:23;7.93;;;5.87;;
79052;SDS011;68451;49.510;6.026;2023-04-25T00:45:51;8.13;;;5.63;;
79052;SDS011;68451;49.510;6.026;2023-04-25T00:48:17;8.87;;;5.97;;
79052;SDS011;68451;49.510;6.026;2023-04-25T00:50:47;11.37;;;7.33;;
79052;SDS011;68451;49.510;6.026;2023-04-25T00:53:17;9.47;;;6.13;;
79052;SDS011;68451;49.510;6.026;2023-04-25T00:55:43;11.60;;;6.43;;
79052;SDS011;68451;49.510;6.026;2023-04-25T00:58:08;9.70;;;6.83;;
79052;SDS011;68451;49.510;6.026;2023-04-25T01:00:34;9.43;;;6.67;;
79052;SDS011;68451;49.510;6.026;2023-04-25T01:03:00;9.53;;;5.73;;
79052;SDS011;68451;49.510;6.026;2023-04-25T01:05:27;8.67;;;6.33;;
79052;SDS011;68451;49.510;6.026;2023-04-25T01:07:53;7.43;;;6.40;;
79052;SDS011;68451;49.510;6.026;2023-04-25T01:10:18;11.13;;;6.53;;
79052;SDS011;68451;49.510;6.026;2023-04-25T01:12:44;14.13;;;6.60;;
79052;SDS011;68451;49.510;6.026;2023-04-25T01:15:09;11.20;;;8.43;;
79052;SDS011;68451;49.510;6.026;2023-04-25T01:17:35;9.63;;;6.60;;
79052;SDS011;68451;49.510;6.026;2023-04-25T01:20:03;10.67;;;6.83;;
79052;SDS011;68451;49.510;6.026;2023-04-25T01:22:29;7.57;;;5.93;;
79052;SDS011;68451;49.510;6.026;2023-04-25T01:24:55;8.57;;;6.13;;
79052;SDS011;68451;49.510;6.026;2023-04-25T01:27:21;8.90;;;6.33;;
79052;SDS011;68451;49.510;6.026;2023-04-25T01:29:47;7.63;;;5.67;;
79052;SDS011;68451;49.510;6.026;2023-04-25T01:32:14;9.40;;;5.83;;
79052;SDS011;68451;49.510;6.026;2023-04-25T01:34:40;9.47;;;6.37;;
79052;SDS011;68451;49.510;6.026;2023-04-25T01:37:05;9.53;;;7.03;;
79052;SDS011;68451;49.510;6.026;2023-04-25T01:39:31;8.43;;;6.07;;
79052;SDS011;68451;49.510;6.026;2023-04-25T01:41:58;8.63;;;6.13;;
79052;SDS011;68451;49.510;6.026;2023-04-25T01:44:24;9.07;;;6.10;;
79052;SDS011;68451;49.510;6.026;2023-04-25T01:46:50;8.57;;;6.20;;
79052;SDS011;68451;49.510;6.026;2023-04-25T01:49:16;7.17;;;5.17;;
79052;SDS011;68451;49.510;6.026;2023-04-25T01:51:41;8.33;;;6.73;;
79052;SDS011;68451;49.510;6.026;2023-04-25T01:54:07;8.47;;;5.73;;
79052;SDS011;68451;49.510;6.026;2023-04-25T01:56:36;9.60;;;6.97;;
79052;SDS011;68451;49.510;6.026;2023-04-25T01:59:03;7.03;;;5.63;;
79052;SDS011;68451;49.510;6.026;2023-04-25T02:01:29;7.87;;;6.53;;
79052;SDS011;68451;49.510;6.026;2023-04-25T02:03:54;10.17;;;6.70;;
79052;SDS011;68451;49.510;6.026;2023-04-25T02:06:20;9.17;;;6.17;;
79052;SDS011;68451;49.510;6.026;2023-04-25T02:08:46;7.43;;;5.53;;
79052;SDS011;68451;49.510;6.026;2023-04-25T02:11:11;10.10;;;7.10;;
79052;SDS011;68451;49.510;6.026;2023-04-25T02:13:36;6.97;;;6.00;;
79052;SDS011;68451;49.510;6.026;2023-04-25T02:16:02;9.73;;;7.00;;
79052;SDS011;68451;49.510;6.026;2023-04-25T02:18:28;9.00;;;5.83;;
79052;SDS011;68451;49.510;6.026;2023-04-25T02:20:53;11.27;;;7.23;;
79052;SDS011;68451;49.510;6.026;2023-04-25T02:23:19;8.23;;;6.10;;
79052;SDS011;68451;49.510;6.026;2023-04-25T02:25:44;9.17;;;6.13;;
79052;SDS011;68451;49.510;6.026;2023-04-25T02:28:10;7.37;;;6.10;;
79052;SDS011;68451;49.510;6.026;2023-04-25T02:30:38;8.93;;;5.43;;
79052;SDS011;68451;49.510;6.026;2023-04-25T02:33:03;9.00;;;6.10;;
79052;SDS011;68451;49.510;6.026;2023-04-25T02:35:29;8.57;;;6.30;;
79052;SDS011;68451;49.510;6.026;2023-04-25T02:37:54;9.57;;;6.77;;
79052;SDS011;68451;49.510;6.026;2023-04-25T02:40:20;10.83;;;7.37;;
79052;SDS011;68451;49.510;6.026;2023-04-25T02:42:45;8.80;;;6.47;;
79052;SDS011;68451;49.510;6.026;2023-04-25T02:45:11;9.97;;;7.10;;
79052;SDS011;68451;49.510;6.026;2023-04-25T02:47:37;10.37;;;7.40;;
79052;SDS011;68451;49.510;6.026;2023-04-25T02:50:02;9.90;;;6.97;;
79052;SDS011;68451;49.510;6.026;2023-04-25T02:52:28;12.37;;;7.30;;
79052;SDS011;68451;49.510;6.026;2023-04-25T02:54:54;10.63;;;6.97;;
79052;SDS011;68451;49.510;6.026;2023-04-25T02:57:20;9.20;;;6.30;;
79052;SDS011;68451;49.510;6.026;2023-04-25T02:59:45;10.57;;;6.60;;
79052;SDS011;68451;49.510;6.026;2023-04-25T03:02:11;10.63;;;7.63;;
79052;SDS011;68451;49.510;6.026;2023-04-25T03:04:36;10.00;;;8.03;;
79052;SDS011;68451;49.510;6.026;2023-04-25T03:07:02;12.57;;;7.50;;
79052;SDS011;68451;49.510;6.026;2023-04-25T03:09:27;8.87;;;6.53;;
79052;SDS011;68451;49.510;6.026;2023-04-25T03:11:53;12.13;;;6.77;;
79052;SDS011;68451;49.510;6.026;2023-04-25T03:14:18;8.57;;;6.23;;
79052;SDS011;68451;49.510;6.026;2023-04-25T03:16:44;10.43;;;6.97;;
79052;SDS011;68451;49.510;6.026;2023-04-25T03:19:10;9.53;;;6.27;;
79052;SDS011;68451;49.510;6.026;2023-04-25T03:21:36;8.57;;;6.73;;
79052;SDS011;68451;49.510;6.026;2023-04-25T03:24:02;8.83;;;6.20;;
79052;SDS011;68451;49.510;6.026;2023-04-25T03:26:29;9.53;;;6.53;;
79052;SDS011;68451;49.510;6.026;2023-04-25T03:28:55;9.20;;;5.30;;
79052;SDS011;68451;49.510;6.026;2023-04-25T03:31:20;8.50;;;6.33;;
79052;SDS011;68451;49.510;6.026;2023-04-25T03:33:46;10.77;;;6.67;;
79052;SDS011;68451;49.510;6.026;2023-04-25T03:36:12;8.60;;;5.67;;
79052;SDS011;68451;49.510;6.026;2023-04-25T03:38:37;8.23;;;6.20;;
79052;SDS011;68451;49.510;6.026;2023-04-25T03:41:03;8.20;;;5.53;;
79052;SDS011;68451;49.510;6.026;2023-04-25T03:43:28;9.60;;;5.83;;
79052;SDS011;68451;49.510;6.026;2023-04-25T03:45:54;7.87;;;5.77;;
79052;SDS011;68451;49.510;6.026;2023-04-25T03:48:19;8.43;;;5.27;;
79052;SDS011;68451;49.510;6.026;2023-04-25T03:50:47;9.23;;;6.13;;
79052;SDS011;68451;49.510;6.026;2023-04-25T03:53:12;8.37;;;5.87;;
79052;SDS011;68451;49.510;6.026;2023-04-25T03:55:38;9.50;;;5.33;;
79052;SDS011;68451;49.510;6.026;2023-04-25T03:58:03;8.73;;;6.43;;
79052;SDS011;68451;49.510;6.026;2023-04-25T04:00:30;10.27;;;6.30;;
79052;SDS011;68451;49.510;6.026;2023-04-25T04:02:55;9.27;;;7.17;;
79052;SDS011;68451;49.510;6.026;2023-04-25T04:05:21;10.10;;;6.50;;
79052;SDS011;68451;49.510;6.026;2023-04-25T04:07:47;10.50;;;6.90;;
79052;SDS011;68451;49.510;6.026;2023-04-25T04:10:12;9.37;;;6.63;;
79052;SDS011;68451;49.510;6.026;2023-04-25T04:12:38;7.70;;;5.90;;
79052;SDS011;68451;49.510;6.026;2023-04-25T04:15:03;7.50;;;5.90;;
79052;SDS011;68451;49.510;6.026;2023-04-25T04:17:30;10.97;;;7.40;;
79052;SDS011;68451;49.510;6.026;2023-04-25T04:19:56;9.63;;;6.90;;
79052;SDS011;68451;49.510;6.026;2023-04-25T04:22:22;10.40;;;7.27;;
79052;SDS011;68451;49.510;6.026;2023-04-25T04:24:48;12.97;;;8.73;;
79052;SDS011;68451;49.510;6.026;2023-04-25T04:27:15;10.17;;;7.13;;
79052;SDS011;68451;49.510;6.026;2023-04-25T04:29:42;8.50;;;6.93;;
79052;SDS011;68451;49.510;6.026;2023-04-25T04:32:08;13.50;;;8.20;;
79052;SDS011;68451;49.510;6.026;2023-04-25T04:34:33;11.10;;;7.57;;
79052;SDS011;68451;49.510;6.026;2023-04-25T04:37:00;12.83;;;8.50;;
79052;SDS011;68451;49.510;6.026;2023-04-25T04:39:26;12.43;;;8.70;;
79052;SDS011;68451;49.510;6.026;2023-04-25T04:41:51;9.37;;;6.87;;
79052;SDS011;68451;49.510;6.026;2023-04-25T04:44:17;11.67;;;8.07;;
79052;SDS011;68451;49.510;6.026;2023-04-25T04:46:43;11.33;;;7.50;;
79052;SDS011;68451;49.510;6.026;2023-04-25T04:49:09;10.17;;;7.47;;
79052;SDS011;68451;49.510;6.026;2023-04-25T04:51:36;12.27;;;8.03;;
79052;SDS011;68451;49.510;6.026;2023-04-25T04:54:02;11.67;;;8.10;;
79052;SDS011;68451;49.510;6.026;2023-04-25T04:56:28;10.93;;;7.07;;
79052;SDS011;68451;49.510;6.026;2023-04-25T04:58:56;15.00;;;8.37;;
79052;SDS011;68451;49.510;6.026;2023-04-25T05:01:22;11.87;;;8.60;;
79052;SDS011;68451;49.510;6.026;2023-04-25T05:03:49;12.33;;;8.63;;
79052;SDS011;68451;49.510;6.026;2023-04-25T05:06:16;14.10;;;8.20;;
79052;SDS011;68451;49.510;6.026;2023-04-25T05:08:43;11.77;;;9.03;;
79052;SDS011;68451;49.510;6.026;2023-04-25T05:11:08;11.57;;;8.10;;
79052;SDS011;68451;49.510;6.026;2023-04-25T05:13:34;17.67;;;8.87;;
79052;SDS011;68451;49.510;6.026;2023-04-25T05:15:59;11.67;;;9.67;;
79052;SDS011;68451;49.510;6.026;2023-04-25T05:18:25;14.87;;;8.90;;
79052;SDS011;68451;49.510;6.026;2023-04-25T05:20:50;12.77;;;9.33;;
79052;SDS011;68451;49.510;6.026;2023-04-25T05:23:16;13.80;;;9.50;;
79052;SDS011;68451;49.510;6.026;2023-04-25T05:25:41;14.87;;;9.27;;
79052;SDS011;68451;49.510;6.026;2023-04-25T05:28:07;14.33;;;9.77;;
79052;SDS011;68451;49.510;6.026;2023-04-25T05:30:33;15.03;;;9.63;;
79052;SDS011;68451;49.510;6.026;2023-04-25T05:33:00;13.50;;;9.20;;
79052;SDS011;68451;49.510;6.026;2023-04-25T05:35:26;15.03;;;9.20;;
79052;SDS011;68451;49.510;6.026;2023-04-25T05:37:52;14.43;;;9.73;;
79052;SDS011;68451;49.510;6.026;2023-04-25T05:40:17;16.57;;;10.87;;
79052;SDS011;68451;49.510;6.026;2023-04-25T05:42:43;15.43;;;10.00;;
79052;SDS011;68451;49.510;6.026;2023-04-25T05:45:09;16.03;;;9.33;;
79052;SDS011;68451;49.510;6.026;2023-04-25T05:47:35;14.77;;;9.50;;
79052;SDS011;68451;49.510;6.026;2023-04-25T05:50:00;16.17;;;9.70;;
79052;SDS011;68451;49.510;6.026;2023-04-25T05:52:26;13.97;;;9.03;;
79052;SDS011;68451;49.510;6.026;2023-04-25T05:54:51;14.47;;;10.27;;
79052;SDS011;68451;49.510;6.026;2023-04-25T05:57:24;13.30;;;9.40;;
79052;SDS011;68451;49.510;6.026;2023-04-25T05:59:51;15.03;;;8.77;;
79052;SDS011;68451;49.510;6.026;2023-04-25T06:02:18;14.53;;;8.80;;
79052;SDS011;68451;49.510;6.026;2023-04-25T06:04:45;13.00;;;9.37;;
79052;SDS011;68451;49.510;6.026;2023-04-25T06:07:10;14.17;;;10.03;;
79052;SDS011;68451;49.510;6.026;2023-04-25T06:26:16;8.68;;;5.80;;
79052;SDS011;68451;49.510;6.026;2023-04-25T06:28:42;6.97;;;5.60;;
79052;SDS011;68451;49.510;6.026;2023-04-25T06:31:07;6.97;;;4.70;;
79052;SDS011;68451;49.510;6.026;2023-04-25T06:33:33;7.10;;;5.57;;
79052;SDS011;68451;49.510;6.026;2023-04-25T06:35:59;5.63;;;5.00;;
79052;SDS011;68451;49.510;6.026;2023-04-25T06:38:24;6.73;;;5.43;;
79052;SDS011;68451;49.510;6.026;2023-04-25T06:40:50;7.77;;;5.37;;
79052;SDS011;68451;49.510;6.026;2023-04-25T06:43:16;6.50;;;5.77;;
79052;SDS011;68451;49.510;6.026;2023-04-25T06:45:42;8.80;;;6.50;;
79052;SDS011;68451;49.510;6.026;2023-04-25T06:48:07;11.27;;;7.80;;
79052;SDS011;68451;49.510;6.026;2023-04-25T06:50:33;7.60;;;6.20;;
79052;SDS011;68451;49.510;6.026;2023-04-25T06:53:00;13.30;;;7.33;;
79052;SDS011;68451;49.510;6.026;2023-04-25T06:55:26;10.43;;;6.20;;
79052;SDS011;68451;49.510;6.026;2023-04-25T06:57:52;8.07;;;7.27;;
79052;SDS011;68451;49.510;6.026;2023-04-25T07:00:18;8.33;;;6.37;;
79052;SDS011;68451;49.510;6.026;2023-04-25T07:02:44;7.63;;;6.07;;
79052;SDS011;68451;49.510;6.026;2023-04-25T07:05:09;8.37;;;5.20;;
79052;SDS011;68451;49.510;6.026;2023-04-25T07:07:35;8.43;;;6.23;;
79052;SDS011;68451;49.510;6.026;2023-04-25T07:10:00;9.77;;;6.73;;
79052;SDS011;68451;49.510;6.026;2023-04-25T07:12:26;8.90;;;7.20;;
79052;SDS011;68451;49.510;6.026;2023-04-25T07:14:51;9.93;;;7.53;;
79052;SDS011;68451;49.510;6.026;2023-04-25T07:17:17;11.37;;;7.40;;
79052;SDS011;68451;49.510;6.026;2023-04-25T07:19:43;11.13;;;8.13;;
79052;SDS011;68451;49.510;6.026;2023-04-25T07:22:08;12.30;;;7.77;;
79052;SDS011;68451;49.510;6.026;2023-04-25T07:24:34;9.27;;;7.43;;
79052;SDS011;68451;49.510;6.026;2023-04-25T07:26:59;10.60;;;7.23;;
79052;SDS011;68451;49.510;6.026;2023-04-25T07:29:26;13.57;;;7.40;;
79052;SDS011;68451;49.510;6.026;2023-04-25T07:31:51;10.27;;;8.37;;
79052;SDS011;68451;49.510;6.026;2023-04-25T07:34:18;10.30;;;6.97;;
79052;SDS011;68451;49.510;6.026;2023-04-25T07:36:43;11.70;;;7.90;;
79052;SDS011;68451;49.510;6.026;2023-04-25T07:39:09;10.03;;;6.47;;
79052;SDS011;68451;49.510;6.026;2023-04-25T07:41:34;12.13;;;8.13;;
79052;SDS011;68451;49.510;6.026;2023-04-25T07:44:00;10.87;;;8.67;;
79052;SDS011;68451;49.510;6.026;2023-04-25T07:46:25;12.13;;;8.00;;
79052;SDS011;68451;49.510;6.026;2023-04-25T07:48:51;11.50;;;7.60;;
79052;SDS011;68451;49.510;6.026;2023-04-25T07:51:17;12.57;;;7.67;;
79052;SDS011;68451;49.510;6.026;2023-04-25T07:53:44;9.57;;;6.90;;
79052;SDS011;68451;49.510;6.026;2023-04-25T07:56:10;12.53;;;6.83;;
79052;SDS011;68451;49.510;6.026;2023-04-25T07:58:36;9.70;;;6.33;;
79052;SDS011;68451;49.510;6.026;2023-04-25T08:01:02;8.57;;;5.67;;
79052;SDS011;68451;49.510;6.026;2023-04-25T08:03:27;8.63;;;6.60;;
79052;SDS011;68451;49.510;6.026;2023-04-25T08:05:53;14.03;;;6.27;;
79052;SDS011;68451;49.510;6.026;2023-04-25T08:08:18;9.57;;;5.73;;
79052;SDS011;68451;49.510;6.026;2023-04-25T08:10:44;9.73;;;5.60;;
79052;SDS011;68451;49.510;6.026;2023-04-25T08:13:09;16.97;;;6.50;;
79052;SDS011;68451;49.510;6.026;2023-04-25T08:15:35;9.53;;;6.27;;
79052;SDS011;68451;49.510;6.026;2023-04-25T08:18:00;11.93;;;6.83;;
79052;SDS011;68451;49.510;6.026;2023-04-25T08:20:26;9.83;;;5.97;;
79052;SDS011;68451;49.510;6.026;2023-04-25T08:22:51;14.40;;;6.57;;
79052;SDS011;68451;49.510;6.026;2023-04-25T08:25:17;11.37;;;6.03;;
79052;SDS011;68451;49.510;6.026;2023-04-25T08:27:43;10.93;;;6.73;;
79052;SDS011;68451;49.510;6.026;2023-04-25T08:30:08;10.17;;;6.43;;
79052;SDS011;68451;49.510;6.026;2023-04-25T08:32:34;9.77;;;6.20;;
79052;SDS011;68451;49.510;6.026;2023-04-25T08:35:03;10.60;;;6.47;;
79052;SDS011;68451;49.510;6.026;2023-04-25T08:37:28;12.20;;;6.83;;
79052;SDS011;68451;49.510;6.026;2023-04-25T08:39:54;10.93;;;6.13;;
79052;SDS011;68451;49.510;6.026;2023-04-25T08:42:21;9.03;;;6.07;;
79052;SDS011;68451;49.510;6.026;2023-04-25T08:44:47;13.57;;;7.30;;
79052;SDS011;68451;49.510;6.026;2023-04-25T08:47:13;13.73;;;6.70;;
79052;SDS011;68451;49.510;6.026;2023-04-25T08:49:39;13.50;;;8.57;;
79052;SDS011;68451;49.510;6.026;2023-04-25T08:52:07;15.43;;;7.07;;
79052;SDS011;68451;49.510;6.026;2023-04-25T08:54:35;14.70;;;7.53;;
79052;SDS011;68451;49.510;6.026;2023-04-25T08:57:02;12.73;;;7.93;;
79052;SDS011;68451;49.510;6.026;2023-04-25T08:59:29;11.77;;;7.27;;
79052;SDS011;68451;49.510;6.026;2023-04-25T09:01:56;10.67;;;6.73;;
79052;SDS011;68451;49.510;6.026;2023-04-25T09:04:23;12.63;;;6.83;;
79052;SDS011;68451;49.510;6.026;2023-04-25T09:06:49;12.87;;;6.70;;
79052;SDS011;68451;49.510;6.026;2023-04-25T09:09:14;12.40;;;7.60;;
79052;SDS011;68451;49.510;6.026;2023-04-25T09:11:41;15.07;;;8.23;;
79052;SDS011;68451;49.510;6.026;2023-04-25T09:14:10;13.77;;;7.27;;
79052;SDS011;68451;49.510;6.026;2023-04-25T09:16:57;11.67;;;7.47;;
79052;SDS011;68451;49.510;6.026;2023-04-25T09:19:27;12.97;;;7.03;;
79052;SDS011;68451;49.510;6.026;2023-04-25T09:21:55;12.23;;;6.87;;
79052;SDS011;68451;49.510;6.026;2023-04-25T09:27:05;13.95;;;7.18;;
79052;SDS011;68451;49.510;6.026;2023-04-25T09:29:32;16.03;;;8.70;;
79052;SDS011;68451;49.510;6.026;2023-04-25T09:34:38;16.27;;;7.72;;
79052;SDS011;68451;49.510;6.026;2023-04-25T09:37:05;14.87;;;8.87;;
79052;SDS011;68451;49.510;6.026;2023-04-25T09:39:32;15.47;;;8.00;;
79052;SDS011;68451;49.510;6.026;2023-04-25T09:41:59;13.20;;;7.83;;
79052;SDS011;68451;49.510;6.026;2023-04-25T09:44:24;16.37;;;8.17;;
79052;SDS011;68451;49.510;6.026;2023-04-25T09:46:50;21.00;;;8.00;;
79052;SDS011;68451;49.510;6.026;2023-04-25T09:49:19;11.37;;;6.90;;
79052;SDS011;68451;49.510;6.026;2023-04-25T09:51:55;10.13;;;6.57;;
79052;SDS011;68451;49.510;6.026;2023-04-25T09:54:25;12.87;;;7.63;;
79052;SDS011;68451;49.510;6.026;2023-04-25T09:56:52;10.73;;;7.30;;
79052;SDS011;68451;49.510;6.026;2023-04-25T09:59:19;14.30;;;6.80;;
79052;SDS011;68451;49.510;6.026;2023-04-25T10:01:46;10.77;;;6.47;;
79052;SDS011;68451;49.510;6.026;2023-04-25T10:04:13;10.80;;;7.07;;
79052;SDS011;68451;49.510;6.026;2023-04-25T10:06:44;16.07;;;7.00;;
79052;SDS011;68451;49.510;6.026;2023-04-25T10:09:14;11.57;;;7.20;;
79052;SDS011;68451;49.510;6.026;2023-04-25T10:11:40;12.03;;;7.43;;
79052;SDS011;68451;49.510;6.026;2023-04-25T10:14:06;12.90;;;6.60;;
79052;SDS011;68451;49.510;6.026;2023-04-25T10:16:32;11.33;;;6.93;;
79052;SDS011;68451;49.510;6.026;2023-04-25T10:18:59;10.27;;;6.77;;
79052;SDS011;68451;49.510;6.026;2023-04-25T10:21:25;11.20;;;6.80;;
79052;SDS011;68451;49.510;6.026;2023-04-25T10:23:53;12.23;;;7.13;;
79052;SDS011;68451;49.510;6.026;2023-04-25T10:26:19;12.93;;;7.10;;
79052;SDS011;68451;49.510;6.026;2023-04-25T10:28:55;10.83;;;6.67;;
79052;SDS011;68451;49.510;6.026;2023-04-25T10:31:26;9.67;;;6.83;;
79052;SDS011;68451;49.510;6.026;2023-04-25T10:33:52;12.57;;;5.90;;
79052;SDS011;68451;49.510;6.026;2023-04-25T10:36:19;8.13;;;5.47;;
79052;SDS011;68451;49.510;6.026;2023-04-25T10:38:49;10.02;;;6.03;;
79052;SDS011;68451;49.510;6.026;2023-04-25T10:41:17;9.30;;;4.82;;
79052;SDS011;68451;49.510;6.026;2023-04-25T10:43:45;6.82;;;4.88;;
79052;SDS011;68451;49.510;6.026;2023-04-25T10:46:13;7.53;;;4.85;;
79052;SDS011;68451;49.510;6.026;2023-04-25T10:48:44;10.27;;;5.15;;
79052;SDS011;68451;49.510;6.026;2023-04-25T10:51:16;6.30;;;4.15;;
79052;SDS011;68451;49.510;6.026;2023-04-25T10:53:44;6.20;;;3.53;;
79052;SDS011;68451;49.510;6.026;2023-04-25T10:56:20;7.88;;;4.55;;
79052;SDS011;68451;49.510;6.026;2023-04-25T10:58:50;6.50;;;4.32;;
79052;SDS011;68451;49.510;6.026;2023-04-25T11:01:20;6.43;;;3.80;;
79052;SDS011;68451;49.510;6.026;2023-04-25T11:03:46;6.25;;;4.43;;
79052;SDS011;68451;49.510;6.026;2023-04-25T11:06:22;6.05;;;4.25;;
79052;SDS011;68451;49.510;6.026;2023-04-25T11:08:53;6.05;;;3.80;;
79052;SDS011;68451;49.510;6.026;2023-04-25T11:11:19;6.03;;;4.28;;
79052;SDS011;68451;49.510;6.026;2023-04-25T11:13:48;4.25;;;3.53;;
79052;SDS011;68451;49.510;6.026;2023-04-25T11:16:15;7.60;;;3.97;;
79052;SDS011;68451;49.510;6.026;2023-04-25T11:18:42;5.25;;;3.90;;
79052;SDS011;68451;49.510;6.026;2023-04-25T11:21:08;5.15;;;3.22;;
79052;SDS011;68451;49.510;6.026;2023-04-25T11:23:34;4.35;;;3.47;;
79052;SDS011;68451;49.510;6.026;2023-04-25T11:26:00;6.10;;;3.58;;
79052;SDS011;68451;49.510;6.026;2023-04-25T11:28:26;5.78;;;4.28;;
79052;SDS011;68451;49.510;6.026;2023-04-25T11:30:52;8.35;;;4.07;;
79052;SDS011;68451;49.510;6.026;2023-04-25T11:33:18;5.00;;;3.65;;
79052;SDS011;68451;49.510;6.026;2023-04-25T11:35:49;6.93;;;3.50;;
79052;SDS011;68451;49.510;6.026;2023-04-25T11:38:14;6.75;;;4.38;;
79052;SDS011;68451;49.510;6.026;2023-04-25T11:40:40;6.28;;;3.40;;
79052;SDS011;68451;49.510;6.026;2023-04-25T11:43:06;6.13;;;3.88;;
79052;SDS011;68451;49.510;6.026;2023-04-25T11:45:32;6.43;;;4.43;;
79052;SDS011;68451;49.510;6.026;2023-04-25T11:48:01;6.40;;;3.80;;
79052;SDS011;68451;49.510;6.026;2023-04-25T11:50:27;6.22;;;4.00;;
79052;SDS011;68451;49.510;6.026;2023-04-25T11:52:55;5.15;;;3.97;;
79052;SDS011;68451;49.510;6.026;2023-04-25T11:55:22;4.30;;;3.80;;
79052;SDS011;68451;49.510;6.026;2023-04-25T11:57:48;6.88;;;4.75;;
79052;SDS011;68451;49.510;6.026;2023-04-25T12:00:16;7.20;;;4.65;;
79052;SDS011;68451;49.510;6.026;2023-04-25T12:02:44;7.55;;;4.03;;
79052;SDS011;68451;49.510;6.026;2023-04-25T12:05:19;7.70;;;3.97;;
79052;SDS011;68451;49.510;6.026;2023-04-25T12:07:45;3.83;;;3.30;;
79052;SDS011;68451;49.510;6.026;2023-04-25T12:10:12;5.95;;;3.30;;
79052;SDS011;68451;49.510;6.026;2023-04-25T12:12:41;5.22;;;3.55;;
79052;SDS011;68451;49.510;6.026;2023-04-25T12:15:12;6.05;;;4.07;;
79052;SDS011;68451;49.510;6.026;2023-04-25T12:17:41;10.13;;;4.55;;
79052;SDS011;68451;49.510;6.026;2023-04-25T12:20:08;8.48;;;4.90;;
79052;SDS011;68451;49.510;6.026;2023-04-25T12:22:35;5.97;;;3.78;;
79052;SDS011;68451;49.510;6.026;2023-04-25T12:25:01;5.68;;;4.13;;
79052;SDS011;68451;49.510;6.026;2023-04-25T12:27:30;6.80;;;4.47;;
79052;SDS011;68451;49.510;6.026;2023-04-25T12:29:57;5.93;;;3.30;;
79052;SDS011;68451;49.510;6.026;2023-04-25T12:32:22;9.13;;;4.07;;
79052;SDS011;68451;49.510;6.026;2023-04-25T12:34:48;7.43;;;4.22;;
79052;SDS011;68451;49.510;6.026;2023-04-25T12:37:14;7.70;;;3.97;;
79052;SDS011;68451;49.510;6.026;2023-04-25T12:39:40;8.18;;;3.85;;
79052;SDS011;68451;49.510;6.026;2023-04-25T12:42:06;5.22;;;4.68;;
79052;SDS011;68451;49.510;6.026;2023-04-25T12:44:33;5.97;;;3.83;;
79052;SDS011;68451;49.510;6.026;2023-04-25T12:46:59;6.57;;;3.67;;
79052;SDS011;68451;49.510;6.026;2023-04-25T12:49:25;6.43;;;4.20;;
79052;SDS011;68451;49.510;6.026;2023-04-25T12:51:50;9.70;;;4.07;;
79052;SDS011;68451;49.510;6.026;2023-04-25T12:54:16;7.68;;;3.55;;
79052;SDS011;68451;49.510;6.026;2023-04-25T12:56:42;6.07;;;3.55;;
79052;SDS011;68451;49.510;6.026;2023-04-25T12:59:08;4.30;;;3.45;;
79052;SDS011;68451;49.510;6.026;2023-04-25T13:01:34;4.95;;;3.75;;
79052;SDS011;68451;49.510;6.026;2023-04-25T13:04:01;5.00;;;4.18;;
79052;SDS011;68451;49.510;6.026;2023-04-25T13:06:30;8.48;;;4.38;;
79052;SDS011;68451;49.510;6.026;2023-04-25T13:08:56;4.97;;;3.72;;
79052;SDS011;68451;49.510;6.026;2023-04-25T13:11:21;5.40;;;3.50;;
79052;SDS011;68451;49.510;6.026;2023-04-25T13:13:47;6.80;;;3.85;;
79052;SDS011;68451;49.510;6.026;2023-04-25T13:16:12;6.22;;;3.83;;
79052;SDS011;68451;49.510;6.026;2023-04-25T13:18:41;4.20;;;3.80;;
79052;SDS011;68451;49.510;6.026;2023-04-25T13:21:09;7.78;;;4.30;;
79052;SDS011;68451;49.510;6.026;2023-04-25T13:23:35;5.50;;;3.80;;
79052;SDS011;68451;49.510;6.026;2023-04-25T13:26:01;8.87;;;4.60;;
79052;SDS011;68451;49.510;6.026;2023-04-25T13:28:27;7.07;;;4.20;;
79052;SDS011;68451;49.510;6.026;2023-04-25T13:30:53;8.97;;;4.20;;
79052;SDS011;68451;49.510;6.026;2023-04-25T13:33:19;8.10;;;4.13;;
79052;SDS011;68451;49.510;6.026;2023-04-25T13:35:45;7.80;;;4.07;;
79052;SDS011;68451;49.510;6.026;2023-04-25T13:38:14;6.73;;;4.07;;
79052;SDS011;68451;49.510;6.026;2023-04-25T13:40:40;6.40;;;4.10;;
79052;SDS011;68451;49.510;6.026;2023-04-25T13:43:05;6.18;;;4.10;;
79052;SDS011;68451;49.510;6.026;2023-04-25T13:45:31;5.82;;;3.63;;
79052;SDS011;68451;49.510;6.026;2023-04-25T13:47:57;8.10;;;3.95;;
79052;SDS011;68451;49.510;6.026;2023-04-25T13:50:23;6.40;;;4.20;;
79052;SDS011;68451;49.510;6.026;2023-04-25T13:52:48;6.07;;;4.05;;
79052;SDS011;68451;49.510;6.026;2023-04-25T13:55:14;8.80;;;3.97;;
79052;SDS011;68451;49.510;6.026;2023-04-25T13:57:40;5.63;;;3.30;;
79052;SDS011;68451;49.510;6.026;2023-04-25T14:00:06;5.97;;;3.72;;
79052;SDS011;68451;49.510;6.026;2023-04-25T14:02:34;5.60;;;3.92;;
79052;SDS011;68451;49.510;6.026;2023-04-25T14:05:01;7.80;;;3.80;;
79052;SDS011;68451;49.510;6.026;2023-04-25T14:07:28;8.77;;;4.65;;
79052;SDS011;68451;49.510;6.026;2023-04-25T14:09:53;6.07;;;3.25;;
79052;SDS011;68451;49.510;6.026;2023-04-25T14:12:19;5.90;;;3.75;;
79052;SDS011;68451;49.510;6.026;2023-04-25T14:14:44;9.73;;;3.55;;
79052;SDS011;68451;49.510;6.026;2023-04-25T14:17:10;7.55;;;4.13;;
79052;SDS011;68451;49.510;6.026;2023-04-25T14:19:36;3.97;;;3.35;;
79052;SDS011;68451;49.510;6.026;2023-04-25T14:22:03;9.00;;;3.60;;
79052;SDS011;68451;49.510;6.026;2023-04-25T14:24:29;4.85;;;3.20;;
79052;SDS011;68451;49.510;6.026;2023-04-25T14:26:54;7.57;;;2.95;;
79052;SDS011;68451;49.510;6.026;2023-04-25T14:29:21;4.22;;;3.00;;
79052;SDS011;68451;49.510;6.026;2023-04-25T14:31:47;7.78;;;3.55;;
79052;SDS011;68451;49.510;6.026;2023-04-25T14:34:12;5.40;;;2.90;;
79052;SDS011;68451;49.510;6.026;2023-04-25T14:36:38;7.05;;;2.55;;
79052;SDS011;68451;49.510;6.026;2023-04-25T14:39:04;5.05;;;2.75;;
79052;SDS011;68451;49.510;6.026;2023-04-25T14:41:33;5.72;;;2.95;;
79052;SDS011;68451;49.510;6.026;2023-04-25T14:43:59;4.47;;;2.88;;
79052;SDS011;68451;49.510;6.026;2023-04-25T14:46:25;6.85;;;3.20;;
79052;SDS011;68451;49.510;6.026;2023-04-25T14:48:51;6.00;;;2.95;;
79052;SDS011;68451;49.510;6.026;2023-04-25T14:51:17;10.10;;;4.07;;
79052;SDS011;68451;49.510;6.026;2023-04-25T14:53:42;6.00;;;3.57;;
79052;SDS011;68451;49.510;6.026;2023-04-25T14:56:08;4.87;;;3.13;;
79052;SDS011;68451;49.510;6.026;2023-04-25T14:58:34;5.57;;;2.57;;
79052;SDS011;68451;49.510;6.026;2023-04-25T15:00:59;7.13;;;2.85;;